Time;durP1;ratioP1;P1;durP2;ratioP2;P2;SDS_P1;SDS_P2;PMS_P1;PMS_P2;Temp;Humidity;BMP_temperature;BMP_pressure;BME280_temperature;BME280_humidity;BME280_pressure;Samples;Min_cycle;Max_cycle;Signal;HPM_P1;HPM_P2
2024/04/06 00:00:28;;;;;;;21.98;7.63;;;16.20;99.90;;;16.59;90.65;100979.06;4917508;29;20048;-68
2024/04/06 00:02:55;;;;;;;16.08;7.47;;;16.10;99.90;;;16.41;91.65;100981.31;4917107;29;20052;-67
2024/04/06 00:05:22;;;;;;;20.55;7.32;;;16.00;99.90;;;16.36;92.23;100977.88;4917065;29;20486;-67
2024/04/06 00:07:53;;;;;;;18.20;7.80;;;15.90;99.90;;;16.31;92.35;100970.00;4932580;29;20040;-68
2024/04/06 00:10:19;;;;;;;19.60;7.53;;;15.90;99.90;;;16.29;92.88;100982.50;4917074;29;20480;-67
2024/04/06 00:12:48;;;;;;;19.30;7.53;;;15.90;99.90;;;16.26;93.35;100972.78;4917188;29;20374;-68
2024/04/06 00:15:14;;;;;;;16.33;7.35;;;15.90;99.90;;;16.26;93.54;100983.47;4916868;29;20051;-67
2024/04/06 00:17:42;;;;;;;25.30;8.10;;;15.90;99.90;;;16.19;94.18;100975.66;4917251;29;20393;-67
2024/04/06 00:20:09;;;;;;;22.95;8.52;;;15.90;99.90;;;16.13;94.77;100975.81;4916783;29;20465;-68
2024/04/06 00:22:36;;;;;;;17.35;7.78;;;15.80;99.90;;;16.06;95.59;100979.56;4916771;29;20044;-68
2024/04/06 00:25:04;;;;;;;16.10;8.18;;;15.70;99.90;;;15.98;96.67;100965.53;4916576;29;20048;-68
2024/04/06 00:27:32;;;;;;;16.05;7.72;;;15.70;99.90;;;16.02;97.26;100960.09;4916598;29;20139;-67
2024/04/06 00:30:00;;;;;;;19.33;7.25;;;15.80;99.90;;;15.98;98.05;100957.53;4916856;29;20043;-67
2024/04/06 00:32:28;;;;;;;16.17;7.38;;;15.70;99.90;;;15.93;98.96;100956.78;4916532;29;20048;-68
2024/04/06 00:34:54;;;;;;;15.98;7.00;;;15.60;99.90;;;15.92;99.93;100955.88;4916344;29;20043;-67
2024/04/06 00:37:22;;;;;;;17.02;7.82;;;15.60;99.90;;;15.96;100.00;100946.00;4916560;29;20134;-67
2024/04/06 00:39:48;;;;;;;19.85;7.75;;;15.60;99.90;;;15.97;100.00;100945.97;4916330;29;20416;-67
2024/04/06 00:42:15;;;;;;;12.23;6.53;;;15.70;99.90;;;16.03;100.00;100947.59;4916317;29;20044;-67
2024/04/06 00:44:42;;;;;;;13.43;6.75;;;15.80;99.90;;;16.06;100.00;100958.22;4916292;29;20090;-67
2024/04/06 00:47:10;;;;;;;16.02;7.05;;;15.80;99.90;;;16.10;100.00;100946.53;4916189;29;20048;-68
2024/04/06 00:49:37;;;;;;;13.73;7.20;;;15.90;99.90;;;16.15;100.00;100944.63;4916196;29;20077;-67
2024/04/06 00:52:05;;;;;;;15.05;7.22;;;15.80;99.90;;;16.17;100.00;100926.78;4916160;29;20055;-68
2024/04/06 00:54:31;;;;;;;12.77;6.50;;;15.90;99.90;;;15.97;100.00;100889.03;4916106;29;20046;-67
2024/04/06 00:56:59;;;;;;;11.93;6.97;;;16.00;99.90;;;16.10;100.00;100914.53;4916541;29;20047;-67
2024/04/06 00:59:25;;;;;;;11.40;6.97;;;15.90;99.90;;;16.11;100.00;100917.13;4916273;29;20047;-68
2024/04/06 01:01:53;;;;;;;12.52;6.60;;;15.90;99.90;;;16.18;100.00;100917.88;4915860;29;20094;-67
2024/04/06 01:04:20;;;;;;;10.77;6.57;;;15.90;99.90;;;16.11;100.00;100913.59;4932107;29;20059;-67
2024/04/06 01:06:48;;;;;;;14.40;7.10;;;15.90;99.90;;;15.95;100.00;100909.59;4915907;29;20036;-67
2024/04/06 01:09:14;;;;;;;13.35;6.93;;;15.80;99.90;;;15.96;100.00;100908.66;4916312;29;20131;-67
2024/04/06 01:11:41;;;;;;;12.52;7.68;;;15.70;99.90;;;15.95;100.00;100897.09;4916150;29;20393;-67
2024/04/06 01:14:08;;;;;;;16.70;7.20;;;15.70;99.90;;;15.81;100.00;100893.06;4915834;29;20103;-68
2024/04/06 01:16:35;;;;;;;11.73;7.80;;;15.60;99.90;;;15.77;100.00;100899.38;4916101;29;20441;-67
2024/04/06 01:19:02;;;;;;;14.10;7.00;;;15.50;99.90;;;15.71;100.00;100896.84;4916144;29;20051;-67
2024/04/06 01:21:30;;;;;;;12.60;7.18;;;15.50;99.90;;;15.72;100.00;100903.94;4915939;29;20505;-68
2024/04/06 01:23:57;;;;;;;11.70;7.07;;;15.50;99.90;;;15.90;100.00;100914.16;4916233;29;20126;-68
2024/04/06 01:26:26;;;;;;;13.77;6.72;;;15.60;99.90;;;15.95;100.00;100904.25;4915762;29;20484;-67
2024/04/06 01:28:52;;;;;;;10.00;7.03;;;15.70;99.90;;;16.04;100.00;100902.22;4915847;29;20040;-68
2024/04/06 01:31:19;;;;;;;11.60;7.93;;;15.70;99.90;;;15.98;100.00;100873.03;4915717;29;20059;-68
2024/04/06 01:33:50;;;;;;;14.40;7.80;;;15.80;99.90;;;16.24;100.00;100905.22;4915742;29;20088;-67
2024/04/06 01:36:18;;;;;;;12.90;7.88;;;15.90;99.90;;;16.25;100.00;100911.44;4915831;29;20047;-67
2024/04/06 01:38:44;;;;;;;15.88;7.35;;;16.00;99.90;;;16.32;100.00;100912.16;4915622;29;20128;-67
2024/04/06 01:41:12;;;;;;;12.27;7.68;;;16.00;99.90;;;16.34;100.00;100921.00;4915795;29;20040;-67
2024/04/06 01:43:39;;;;;;;10.80;8.25;;;16.10;99.90;;;16.29;100.00;100907.78;4915796;29;20039;-67
2024/04/06 01:46:08;;;;;;;11.20;7.93;;;16.10;99.90;;;16.31;100.00;100905.94;4915490;29;20085;-67
2024/04/06 01:48:34;;;;;;;15.00;7.90;;;16.10;99.90;;;16.26;100.00;100910.50;4915924;29;20042;-68
2024/04/06 01:51:01;;;;;;;12.95;8.07;;;16.00;99.90;;;16.19;100.00;100916.94;4916105;29;20051;-67
2024/04/06 01:53:28;;;;;;;11.18;7.93;;;15.90;99.90;;;16.14;100.00;100902.84;4916602;29;20051;-68
2024/04/06 01:55:55;;;;;;;12.43;7.88;;;15.90;99.90;;;16.06;100.00;100899.50;4916561;29;20055;-68
2024/04/06 01:58:21;;;;;;;9.70;7.82;;;15.80;99.90;;;16.09;100.00;100907.41;4917768;29;20532;-67
2024/04/06 02:00:50;;;;;;;11.48;7.80;;;15.70;99.90;;;16.13;100.00;100909.97;4920180;29;20044;-67
2024/04/06 02:03:17;;;;;;;12.18;8.50;;;15.80;99.90;;;16.07;100.00;100914.59;4919918;29;20039;-67
2024/04/06 02:05:44;;;;;;;10.07;7.57;;;15.70;99.90;;;15.98;100.00;100909.50;4919952;29;20043;-67
2024/04/06 02:08:10;;;;;;;11.23;8.30;;;15.70;99.90;;;15.96;100.00;100908.66;4919877;29;20082;-68
2024/04/06 02:10:38;;;;;;;10.90;7.38;;;15.70;99.90;;;15.85;100.00;100900.91;4919876;29;20048;-67
2024/04/06 02:13:05;;;;;;;10.32;7.32;;;15.60;99.90;;;15.88;100.00;100899.97;4919708;29;20541;-67
2024/04/06 02:15:32;;;;;;;11.60;7.90;;;15.60;99.90;;;15.86;100.00;100904.47;4919889;29;20052;-67
2024/04/06 02:18:00;;;;;;;8.60;6.93;;;15.60;99.90;;;15.89;100.00;100899.91;4919776;29;20062;-67
2024/04/06 02:20:28;;;;;;;10.43;7.63;;;15.60;99.90;;;15.82;100.00;100887.66;4920024;29;20047;-67
2024/04/06 02:22:54;;;;;;;13.02;7.68;;;15.60;99.90;;;15.72;100.00;100888.81;4935344;29;20724;-68
2024/04/06 02:25:21;;;;;;;10.27;7.47;;;15.50;99.90;;;15.54;100.00;100891.06;4919716;29;20054;-68
2024/04/06 02:27:48;;;;;;;12.80;7.88;;;15.30;99.90;;;15.33;100.00;100874.63;4919672;29;20094;-67
2024/04/06 02:30:16;;;;;;;8.75;7.85;;;15.20;99.90;;;15.12;100.00;100836.94;4919557;29;20552;-68
2024/04/06 02:32:42;;;;;;;10.52;7.35;;;15.00;99.90;;;15.20;100.00;100873.16;4919263;29;20839;-67
2024/04/06 02:35:11;;;;;;;13.23;8.15;;;14.90;99.90;;;15.23;100.00;100883.75;4919373;29;20394;-67
2024/04/06 02:37:37;;;;;;;13.50;8.00;;;14.90;99.90;;;15.25;100.00;100881.06;4919534;29;20082;-66
2024/04/06 02:40:06;;;;;;;13.18;8.65;;;14.90;99.90;;;15.27;100.00;100881.91;4919564;29;20044;-67
2024/04/06 02:42:32;;;;;;;12.00;7.18;;;15.00;99.90;;;15.27;100.00;100876.56;4919211;29;20050;-67
2024/04/06 02:45:00;;;;;;;15.65;8.35;;;15.00;99.90;;;15.18;100.00;100868.78;4919271;29;20051;-67
2024/04/06 02:47:27;;;;;;;10.40;8.25;;;14.90;99.90;;;15.12;100.00;100864.47;4919236;29;20123;-67
2024/04/06 02:49:54;;;;;;;10.00;7.95;;;14.90;99.90;;;15.11;100.00;100856.53;4919355;29;20047;-67
2024/04/06 02:52:23;;;;;;;11.93;8.10;;;14.80;99.90;;;14.34;100.00;100730.47;4919139;29;20054;-67
2024/04/06 02:54:50;;;;;;;10.70;8.48;;;14.80;99.90;;;15.09;100.00;100859.22;4918880;29;20398;-67
2024/04/06 02:57:18;;;;;;;13.05;8.43;;;14.80;99.90;;;15.01;100.00;100869.19;4919195;29;20052;-67
2024/04/06 02:59:46;;;;;;;11.30;8.23;;;14.80;99.90;;;15.01;100.00;100855.84;4919115;29;20075;-67
2024/04/06 03:02:13;;;;;;;12.18;8.13;;;14.80;99.90;;;15.08;100.00;100867.22;4918918;29;20047;-67
2024/04/06 03:04:42;;;;;;;12.93;8.45;;;14.80;99.90;;;15.04;100.00;100860.25;4918945;29;20309;-67
2024/04/06 03:07:09;;;;;;;13.65;9.15;;;14.80;99.90;;;15.02;100.00;100865.59;4934576;29;20073;-67
2024/04/06 03:09:40;;;;;;;11.90;9.18;;;14.80;99.90;;;15.09;100.00;100863.66;4918058;29;20039;-68
2024/04/06 03:12:07;;;;;;;;;;;14.80;99.90;;;15.07;100.00;100869.03;4919262;29;20544;-68
2024/04/06 03:14:34;;;;;;;15.43;10.10;;;14.90;99.90;;;15.07;100.00;100871.69;4934587;29;20003;-68
2024/04/06 03:17:02;;;;;;;16.10;10.15;;;14.80;99.90;;;15.13;100.00;100879.56;4918682;29;20108;-67
2024/04/06 03:19:30;;;;;;;12.75;9.82;;;14.90;99.90;;;15.04;100.00;100882.41;4918680;29;20077;-67
2024/04/06 03:21:56;;;;;;;14.65;9.63;;;14.90;99.90;;;14.88;100.00;100843.72;4918573;29;20091;-67
2024/04/06 03:24:24;;;;;;;12.80;9.90;;;14.80;99.90;;;15.06;100.00;100880.59;4918761;29;20075;-67
2024/04/06 03:26:52;;;;;;;15.68;11.00;;;14.90;99.90;;;15.04;100.00;100874.41;4918614;29;20529;-67
2024/04/06 03:29:19;;;;;;;14.32;10.48;;;14.80;99.90;;;14.96;100.00;100859.53;4918964;29;20051;-68
2024/04/06 03:31:46;;;;;;;13.07;10.23;;;14.80;99.90;;;15.01;100.00;100854.97;4931098;29;20059;-67
2024/04/06 03:34:13;;;;;;;13.80;10.95;;;14.80;99.90;;;15.01;100.00;100852.31;4899413;29;20390;-67
2024/04/06 03:36:40;;;;;;;15.52;10.35;;;14.80;99.90;;;14.96;100.00;100843.56;4914997;29;20044;-68
2024/04/06 03:39:08;;;;;;;15.02;9.73;;;14.70;99.90;;;14.98;100.00;100847.06;4915154;29;20135;-67
2024/04/06 03:41:35;;;;;;;12.55;9.35;;;14.80;99.90;;;14.85;100.00;100827.81;4915175;29;20040;-68
2024/04/06 03:44:04;;;;;;;12.40;9.65;;;14.70;99.90;;;14.85;100.00;100848.22;4915040;29;20060;-68
2024/04/06 03:46:31;;;;;;;11.40;8.60;;;14.70;99.90;;;14.84;100.00;100820.75;4915226;29;20068;-67
2024/04/06 03:48:58;;;;;;;12.95;8.90;;;14.60;99.90;;;14.75;100.00;100810.28;4915118;29;20529;-67
2024/04/06 03:51:24;;;;;;;12.32;9.15;;;14.60;99.90;;;14.75;100.00;100812.09;4915058;29;20048;-67
2024/04/06 03:53:52;;;;;;;14.93;8.50;;;14.50;99.90;;;14.70;100.00;100814.84;4914887;29;20135;-67
2024/04/06 03:56:18;;;;;;;10.98;7.57;;;14.50;99.90;;;14.75;100.00;100812.09;4914985;29;20466;-67
2024/04/06 03:58:46;;;;;;;13.82;7.93;;;14.50;99.90;;;14.76;100.00;100812.03;4914739;29;20059;-67
2024/04/06 04:01:13;;;;;;;10.82;8.18;;;14.50;99.90;;;14.78;100.00;100796.03;4914901;29;20044;-67
2024/04/06 04:03:41;;;;;;;10.25;7.68;;;14.50;99.90;;;14.75;100.00;100777.47;4914894;29;20075;-67
2024/04/06 04:06:07;;;;;;;10.70;6.78;;;14.50;99.90;;;14.70;100.00;100780.22;4914751;29;20044;-67
2024/04/06 04:08:35;;;;;;;12.63;7.40;;;14.50;99.90;;;14.78;100.00;100790.69;4915087;29;20127;-67
2024/04/06 04:11:01;;;;;;;10.75;7.47;;;14.50;99.90;;;14.69;100.00;100761.63;4914620;29;20044;-67
2024/04/06 04:13:29;;;;;;;11.77;6.88;;;14.60;99.90;;;14.80;100.00;100771.13;4914961;29;20107;-67
2024/04/06 04:15:55;;;;;;;8.80;6.47;;;14.50;99.90;;;14.86;100.00;100762.09;4914378;29;20493;-67
2024/04/06 04:18:24;;;;;;;11.77;6.80;;;14.60;99.90;;;14.88;100.00;100763.84;4914485;29;20424;-67
2024/04/06 04:20:51;;;;;;;11.10;6.93;;;14.60;99.90;;;15.03;100.00;100775.91;4913894;29;20508;-67
2024/04/06 04:23:18;;;;;;;11.65;7.03;;;14.70;99.90;;;15.01;100.00;100772.41;4913998;29;20035;-67
2024/04/06 04:25:44;;;;;;;9.02;6.82;;;14.70;99.90;;;15.01;100.00;100778.59;4914209;29;20052;-66
2024/04/06 04:28:12;;;;;;;11.30;7.43;;;14.70;99.90;;;15.00;100.00;100774.16;4914349;29;20623;-67
2024/04/06 04:30:38;;;;;;;13.35;7.07;;;14.70;99.90;;;14.86;100.00;100754.13;4914477;29;20494;-67
2024/04/06 04:33:06;;;;;;;12.85;7.88;;;14.70;99.90;;;14.99;100.00;100772.44;4917109;29;20211;-67
2024/04/06 04:35:33;;;;;;;10.95;7.15;;;14.70;99.90;;;14.96;100.00;100768.97;4917274;29;20039;-67
2024/04/06 04:38:01;;;;;;;7.93;7.03;;;14.70;99.90;;;14.87;100.00;100763.84;4917326;29;20051;-68
2024/04/06 04:40:27;;;;;;;8.73;7.00;;;14.70;99.90;;;14.82;100.00;100755.97;4917492;29;20051;-67
2024/04/06 04:42:54;;;;;;;10.38;7.28;;;14.60;99.90;;;14.86;100.00;100735.47;4917070;29;20066;-68
2024/04/06 04:45:21;;;;;;;9.52;6.78;;;14.60;99.90;;;14.89;100.00;100732.72;4917364;29;20067;-68
2024/04/06 04:47:48;;;;;;;12.10;7.60;;;14.60;99.90;;;14.90;100.00;100713.19;4917489;29;20047;-67
2024/04/06 04:50:15;;;;;;;12.13;7.57;;;14.60;99.90;;;14.90;100.00;100722.06;4917090;29;20123;-67
2024/04/06 04:52:44;;;;;;;10.95;8.00;;;14.60;99.90;;;14.97;100.00;100707.66;4917145;29;20048;-67
2024/04/06 04:55:10;;;;;;;14.20;8.70;;;14.70;99.90;;;14.87;100.00;100716.78;4917251;29;20044;-67
2024/04/06 04:57:38;;;;;;;12.63;9.57;;;14.60;99.90;;;14.98;100.00;100728.03;4917079;29;20055;-68
2024/04/06 05:00:07;;;;;;;11.45;8.88;;;14.70;99.90;;;15.01;100.00;100733.31;4932503;29;20051;-68
2024/04/06 05:02:34;;;;;;;13.50;8.35;;;14.70;99.90;;;14.90;100.00;100722.06;4917135;29;20051;-67
2024/04/06 05:05:00;;;;;;;11.80;7.82;;;14.70;99.90;;;15.00;100.00;100717.38;4916943;29;20048;-68
2024/04/06 05:07:28;;;;;;;10.73;7.53;;;14.70;99.90;;;15.03;100.00;100702.19;4916902;29;20122;-67
2024/04/06 05:09:55;;;;;;;11.30;7.50;;;14.70;99.90;;;14.94;100.00;100686.41;4917274;29;20055;-67
2024/04/06 05:12:23;;;;;;;10.07;7.43;;;14.80;99.90;;;15.02;100.00;100719.06;4916598;29;20099;-68
2024/04/06 05:14:49;;;;;;;10.10;6.55;;;14.80;99.90;;;15.07;100.00;100722.50;4916522;29;20039;-67
2024/04/06 05:17:18;;;;;;;8.32;7.10;;;14.80;99.90;;;15.17;100.00;100731.16;4916852;29;20114;-67
2024/04/06 05:19:44;;;;;;;10.18;7.68;;;14.80;99.90;;;14.55;100.00;100615.53;4917020;29;20036;-67
2024/04/06 05:22:12;;;;;;;11.98;7.70;;;14.90;99.90;;;15.38;100.00;100739.47;4916672;29;20052;-67
2024/04/06 05:24:40;;;;;;;10.90;6.90;;;15.10;99.90;;;15.50;100.00;100750.75;4916491;29;20135;-68
2024/04/06 05:27:08;;;;;;;11.95;7.25;;;15.20;99.90;;;15.49;100.00;100746.31;4916190;29;20043;-67
2024/04/06 05:29:35;;;;;;;9.70;7.15;;;15.20;99.90;;;15.48;100.00;100752.59;4916376;29;20040;-68
2024/04/06 05:32:03;;;;;;;9.65;6.68;;;15.20;99.90;;;15.50;100.00;100758.75;4916371;29;20119;-67
2024/04/06 05:34:29;;;;;;;7.80;6.65;;;15.20;99.90;;;15.50;100.00;100750.75;4915843;29;20594;-67
2024/04/06 05:36:56;;;;;;;10.07;7.13;;;15.20;99.90;;;15.21;100.00;100736.34;4916436;29;20058;-67
2024/04/06 05:39:23;;;;;;;9.85;6.47;;;15.00;99.90;;;15.20;100.00;100753.25;4916384;29;20040;-67
2024/04/06 05:41:50;;;;;;;11.20;7.05;;;14.90;99.90;;;15.33;100.00;100756.47;4916175;29;20058;-67
2024/04/06 05:44:22;;;;;;;9.73;7.28;;;15.00;99.90;;;15.45;100.00;100760.69;4916205;29;20417;-67
2024/04/06 05:46:49;;;;;;;11.07;7.20;;;15.10;99.90;;;15.35;100.00;100762.63;4916420;29;20118;-66
2024/04/06 05:49:16;;;;;;;9.13;6.40;;;15.10;99.90;;;15.37;100.00;100764.34;4916085;29;20044;-67
2024/04/06 05:51:43;;;;;;;7.72;6.68;;;15.10;99.90;;;15.34;100.00;100761.78;4916361;29;20047;-66
2024/04/06 05:54:10;;;;;;;9.88;6.40;;;15.10;99.90;;;15.38;100.00;100754.59;4916146;29;20064;-67
2024/04/06 05:56:37;;;;;;;11.18;6.70;;;15.10;99.90;;;15.55;100.00;100776.38;4916355;29;20047;-67
2024/04/06 05:59:04;;;;;;;9.55;6.45;;;15.20;99.90;;;15.64;100.00;100784.13;4916339;29;20434;-67
2024/04/06 06:01:33;;;;;;;11.10;6.88;;;15.30;99.90;;;15.67;100.00;100775.19;4932154;29;20043;-67
2024/04/06 06:04:00;;;;;;;7.87;6.27;;;15.40;99.90;;;15.58;100.00;100770.94;4915988;29;20534;-67
2024/04/06 06:06:27;;;;;;;10.55;6.78;;;15.40;99.90;;;15.50;100.00;100756.97;4916452;29;20091;-67
2024/04/06 06:08:53;;;;;;;20.38;7.45;;;15.30;99.90;;;15.41;100.00;100770.47;4916296;29;20043;-68
2024/04/06 06:11:21;;;;;;;7.78;6.13;;;15.20;99.90;;;15.52;100.00;100764.91;4916299;29;20047;-68
2024/04/06 06:13:47;;;;;;;9.27;6.80;;;15.20;99.90;;;15.59;100.00;100766.50;4916176;29;20505;-67
2024/04/06 06:16:15;;;;;;;11.82;6.80;;;15.30;99.90;;;15.68;100.00;100771.59;4915917;29;20055;-68
2024/04/06 06:18:42;;;;;;;11.27;6.70;;;15.40;99.90;;;15.75;100.00;100760.72;4915949;29;20055;-67
2024/04/06 06:21:10;;;;;;;10.25;6.03;;;15.50;99.90;;;15.75;100.00;100757.19;4915877;29;20655;-68
2024/04/06 06:23:36;;;;;;;10.35;6.20;;;15.50;99.90;;;15.85;100.00;100756.00;4916036;29;20051;-68
2024/04/06 06:26:04;;;;;;;8.18;6.45;;;15.60;99.90;;;15.77;100.00;100745.56;4916190;29;20413;-67
2024/04/06 06:28:31;;;;;;;8.30;6.50;;;15.50;99.90;;;15.89;100.00;100745.19;4915900;29;20044;-67
2024/04/06 06:31:00;;;;;;;8.18;6.53;;;15.60;99.90;;;15.89;100.00;100747.00;4915649;29;20087;-67
2024/04/06 06:33:27;;;;;;;9.48;6.63;;;15.60;99.90;;;15.93;100.00;100746.88;4915934;29;20082;-68
2024/04/06 06:35:56;;;;;;;12.07;6.50;;;15.70;99.90;;;16.08;100.00;100743.78;4915641;29;20126;-67
2024/04/06 06:38:22;;;;;;;9.95;6.47;;;15.70;99.90;;;16.14;100.00;100734.72;4915693;29;20059;-67
2024/04/06 06:40:51;;;;;;;7.85;6.38;;;15.90;99.90;;;16.31;100.00;100732.41;4915771;29;20052;-67
2024/04/06 06:43:18;;;;;;;8.70;6.45;;;16.00;99.90;;;16.22;100.00;100732.66;4915797;29;20055;-67
2024/04/06 06:45:45;;;;;;;9.15;6.47;;;16.00;99.90;;;16.27;100.00;100728.97;4917782;29;20056;-65
2024/04/06 06:48:11;;;;;;;9.90;6.80;;;16.00;99.90;;;16.31;100.00;100724.41;4918964;29;20090;-69
2024/04/06 06:50:39;;;;;;;7.50;6.68;;;16.00;99.90;;;16.23;100.00;100715.75;4918921;29;20051;-69
2024/04/06 06:53:07;;;;;;;10.40;6.43;;;16.00;99.90;;;16.33;100.00;100722.56;4935234;29;20048;-70
2024/04/06 06:55:36;;;;;;;7.88;5.93;;;16.10;99.90;;;16.25;100.00;100717.47;4919025;29;20047;-70
2024/04/06 06:58:02;;;;;;;7.72;6.07;;;16.00;99.90;;;16.23;100.00;100705.09;4918879;29;20073;-69
2024/04/06 07:00:30;;;;;;;7.22;5.78;;;16.00;99.90;;;16.17;100.00;100706.13;4918801;29;20734;-70
2024/04/06 07:02:56;;;;;;;15.57;6.15;;;15.90;99.90;;;16.28;100.00;100709.34;4918615;29;20051;-70
2024/04/06 07:05:24;;;;;;;8.55;5.95;;;16.00;99.90;;;16.46;100.00;100704.38;4918713;29;20147;-69
2024/04/06 07:07:58;;;;;;;11.63;6.35;;;16.10;99.90;;;16.53;100.00;100714.00;4918422;29;20036;-65
2024/04/06 07:10:27;;;;;;;7.95;6.10;;;16.20;99.90;;;16.80;100.00;100687.25;4903230;29;20055;-66
2024/04/06 07:12:53;;;;;;;7.32;6.05;;;16.50;99.90;;;16.95;100.00;100696.56;4918697;29;20063;-65
2024/04/06 07:15:21;;;;;;;11.10;6.22;;;16.70;99.90;;;16.99;100.00;100701.75;4934469;29;20405;-66
2024/04/06 07:17:47;;;;;;;9.82;6.05;;;16.70;99.90;;;17.17;100.00;100715.44;4918415;29;20051;-67
2024/04/06 07:20:15;;;;;;;11.38;6.50;;;16.90;99.90;;;17.18;100.00;100702.03;4918711;29;20043;-66
2024/04/06 07:22:41;;;;;;;9.27;6.00;;;16.90;99.90;;;17.01;100.00;100691.88;4918541;29;20035;-67
2024/04/06 07:25:08;;;;;;;8.52;5.53;;;16.80;99.90;;;16.99;100.00;100679.53;4919002;29;20063;-68
2024/04/06 07:27:36;;;;;;;9.20;5.68;;;16.80;99.90;;;17.14;100.00;100687.91;4918242;29;20091;-65
2024/04/06 07:30:06;;;;;;;6.88;5.65;;;16.90;99.90;;;17.20;100.00;100693.94;4918228;29;20043;-65
2024/04/06 07:32:32;;;;;;;8.20;5.90;;;16.90;99.90;;;17.13;100.00;100691.47;4918040;29;20059;-65
2024/04/06 07:35:02;;;;;;;8.60;5.70;;;16.90;99.90;;;17.21;100.00;100690.38;4918123;29;20103;-66
2024/04/06 07:37:28;;;;;;;9.38;5.68;;;16.90;99.90;;;17.36;100.00;100695.16;4918214;29;20048;-67
2024/04/06 07:39:56;;;;;;;10.77;5.70;;;17.10;99.90;;;17.59;98.43;100696.16;4918126;29;20055;-68
2024/04/06 07:42:22;;;;;;;8.35;5.57;;;17.30;99.90;;;17.68;97.88;100690.44;4917980;29;20102;-66
2024/04/06 07:44:51;;;;;;;12.85;5.68;;;17.40;99.90;;;17.75;96.41;100702.66;4918038;29;20118;-66
2024/04/06 07:47:18;;;;;;;9.35;5.63;;;17.50;99.90;;;17.66;95.29;100640.59;4918143;29;20055;-68
2024/04/06 07:49:45;;;;;;;7.43;5.22;;;17.60;99.90;;;17.97;93.82;100689.38;4918127;29;20528;-67
2024/04/06 07:52:12;;;;;;;7.63;5.20;;;17.80;99.90;;;18.04;94.67;100666.78;4918018;29;20058;-67
2024/04/06 07:54:40;;;;;;;7.88;5.47;;;17.80;99.90;;;18.23;93.55;100689.28;4917951;29;20074;-67
2024/04/06 07:57:07;;;;;;;8.43;5.97;;;18.00;99.90;;;18.31;92.55;100687.16;4917785;29;20050;-67
2024/04/06 07:59:34;;;;;;;5.97;4.80;;;18.00;99.90;;;18.28;92.06;100691.75;4918119;29;20138;-68
2024/04/06 08:02:02;;;;;;;9.95;5.15;;;18.10;99.90;;;18.48;91.25;100675.81;4918004;29;20095;-67
2024/04/06 08:04:29;;;;;;;10.25;5.43;;;18.20;99.90;;;18.49;89.92;100685.59;4917856;29;20046;-67
2024/04/06 08:06:56;;;;;;;7.72;4.68;;;18.30;99.90;;;18.58;89.55;100688.78;4917504;29;20808;-67
2024/04/06 08:09:23;;;;;;;7.97;4.55;;;18.30;99.90;;;18.59;88.73;100679.81;4917898;29;20066;-67
2024/04/06 08:11:49;;;;;;;5.82;5.05;;;18.40;99.90;;;18.68;89.71;100665.16;4917748;29;20048;-67
2024/04/06 08:14:17;;;;;;;11.80;5.30;;;18.40;99.90;;;18.61;87.23;100688.66;4917563;29;20493;-67
2024/04/06 08:16:43;;;;;;;7.47;4.82;;;18.40;99.90;;;18.44;86.02;100666.16;4917275;29;20055;-66
2024/04/06 08:19:12;;;;;;;7.47;4.90;;;18.30;99.90;;;18.38;87.78;100667.25;4917416;29;20044;-67
2024/04/06 08:21:39;;;;;;;7.65;5.15;;;18.20;99.90;;;18.38;87.69;100648.50;4933159;29;20048;-67
2024/04/06 08:24:07;;;;;;;5.43;4.88;;;18.20;99.90;;;18.38;89.09;100659.22;4917333;29;20036;-68
2024/04/06 08:26:33;;;;;;;7.20;5.13;;;18.10;99.90;;;18.37;89.40;100683.38;4917047;29;20055;-68
2024/04/06 08:29:01;;;;;;;7.50;4.88;;;18.10;99.90;;;18.39;89.01;100655.59;4917314;29;20036;-68
2024/04/06 08:31:28;;;;;;;7.50;5.13;;;18.10;99.90;;;18.38;89.56;100671.72;4916948;29;20055;-68
2024/04/06 08:33:55;;;;;;;6.10;4.65;;;18.20;99.90;;;18.35;89.75;100650.44;4917747;29;20051;-67
2024/04/06 08:36:23;;;;;;;7.78;5.38;;;18.20;99.90;;;18.47;88.58;100660.66;4916983;29;20055;-67
2024/04/06 08:38:51;;;;;;;7.38;4.88;;;18.30;99.90;;;18.43;88.94;100649.19;4916864;29;20127;-68
2024/04/06 08:41:18;;;;;;;6.53;5.13;;;18.30;99.90;;;18.56;89.65;100647.78;4917162;29;20447;-68
2024/04/06 08:43:49;;;;;;;7.15;5.05;;;18.30;99.90;;;18.61;88.39;100664.56;4917317;29;20051;-68
2024/04/06 08:46:17;;;;;;;6.47;4.80;;;18.30;99.90;;;18.63;87.23;100633.22;4917089;29;20568;-68
2024/04/06 08:48:46;;;;;;;10.32;4.50;;;18.40;99.90;;;18.67;87.68;100648.22;4916832;29;20047;-68
2024/04/06 08:51:13;;;;;;;6.38;4.70;;;18.40;99.90;;;18.38;89.28;100576.19;4916832;29;20106;-67
2024/04/06 08:53:42;;;;;;;8.70;5.30;;;18.50;99.90;;;18.76;87.29;100652.31;4916697;29;20046;-68
2024/04/06 08:56:08;;;;;;;9.07;4.53;;;18.50;99.90;;;18.77;87.23;100646.03;4916649;29;20036;-73
2024/04/06 08:58:36;;;;;;;7.00;4.55;;;18.50;99.90;;;18.93;87.21;100606.91;4916866;29;20545;-72
2024/04/06 09:01:04;;;;;;;6.97;4.90;;;18.60;99.90;;;18.74;86.73;100601.47;4916836;29;20059;-72
2024/04/06 09:03:31;;;;;;;7.65;4.78;;;18.60;99.90;;;18.90;86.06;100623.13;4916798;29;20409;-73
2024/04/06 09:05:58;;;;;;;7.13;4.97;;;18.60;99.90;;;18.19;85.57;100477.94;4916803;29;20167;-73
2024/04/06 09:08:25;;;;;;;7.00;5.07;;;18.60;99.90;;;18.96;85.08;100595.19;4916131;29;20036;-68
2024/04/06 09:10:57;;;;;;;6.20;4.72;;;18.70;99.90;;;19.14;86.71;100592.59;4932235;29;20048;-68
2024/04/06 09:13:25;;;;;;;7.18;5.13;;;18.80;99.90;;;19.03;84.96;100577.94;4916659;29;20497;-68
2024/04/06 09:15:51;;;;;;;7.32;5.18;;;18.90;99.90;;;19.14;83.62;100610.50;4916599;29;20103;-68
2024/04/06 09:18:19;;;;;;;9.18;4.50;;;18.90;99.90;;;18.95;82.51;100553.25;4916853;29;20132;-68
2024/04/06 09:20:50;;;;;;;4.90;4.28;;;19.00;99.90;;;19.36;83.01;100616.69;4916275;29;20039;-68
2024/04/06 09:23:18;;;;;;;6.65;4.60;;;19.20;99.90;;;19.39;80.70;100614.75;4916413;29;20070;-68
2024/04/06 09:25:44;;;;;;;8.52;4.57;;;19.20;99.90;;;19.52;81.32;100617.75;4916409;29;20055;-66
2024/04/06 09:28:15;;;;;;;8.45;4.50;;;19.30;99.90;;;19.52;80.62;100612.38;4916294;29;20478;-66
2024/04/06 09:30:43;;;;;;;5.30;3.80;;;19.30;99.90;;;19.63;81.05;100615.44;4916258;29;20052;-66
2024/04/06 09:33:11;;;;;;;5.05;4.15;;;19.40;99.90;;;19.82;81.37;100610.13;4915890;29;20433;-66
2024/04/06 09:35:39;;;;;;;6.55;4.00;;;19.50;99.90;;;19.94;80.60;100610.41;4916259;29;20062;-66
2024/04/06 09:38:14;;;;;;;6.18;4.07;;;19.60;99.90;;;19.28;79.13;100487.41;4916376;29;20039;-66
2024/04/06 09:40:44;;;;;;;5.68;4.00;;;19.80;99.90;;;20.11;79.10;100612.31;4916083;29;20068;-67
2024/04/06 09:43:13;;;;;;;6.27;4.50;;;19.90;99.90;;;20.17;79.87;100612.88;4916444;29;20059;-67
2024/04/06 09:45:41;;;;;;;7.60;4.35;;;20.00;99.90;;;20.33;77.96;100602.28;4916094;29;20306;-67
2024/04/06 09:48:10;;;;;;;6.38;4.10;;;20.10;99.90;;;20.45;77.32;100607.94;4916082;29;20060;-67
2024/04/06 09:50:38;;;;;;;6.82;3.92;;;20.20;99.90;;;20.49;76.11;100627.47;4916259;29;20056;-67
2024/04/06 09:53:06;;;;;;;5.47;3.78;;;20.30;99.90;;;20.56;74.93;100607.41;4916223;29;20404;-67
2024/04/06 09:55:36;;;;;;;6.65;3.80;;;20.30;99.90;;;20.54;74.56;100602.13;4916172;29;20040;-67
2024/04/06 09:58:04;;;;;;;6.63;3.83;;;20.40;99.90;;;20.53;71.33;100616.50;4916391;29;20061;-67
2024/04/06 10:00:33;;;;;;;8.88;3.83;;;20.30;99.90;;;19.86;71.70;100481.03;4916096;29;20044;-67
2024/04/06 10:03:02;;;;;;;6.70;3.67;;;20.30;99.90;;;20.58;73.71;100590.25;4915957;29;20051;-67
2024/04/06 10:05:38;;;;;;;4.82;3.60;;;20.30;99.90;;;20.67;72.56;100613.97;4915846;29;20555;-67